sensor_id;sensor_type;location;lat;lon;timestamp;pressure;altitude;pressure_sealevel;temperature;humidity
51526;BME280;37611;51.794;21.590;2023-04-10T00:00:18;100721.30;;;6.70;100.00
51526;BME280;37611;51.794;21.590;2023-04-10T00:04:39;100727.07;;;6.65;100.00
51526;BME280;37611;51.794;21.590;2023-04-10T00:08:41;100724.88;;;6.58;100.00
51526;BME280;37611;51.794;21.590;2023-04-10T00:12:43;100726.36;;;6.49;100.00
51526;BME280;37611;51.794;21.590;2023-04-10T00:16:44;100729.95;;;6.43;100.00
51526;BME280;37611;51.794;21.590;2023-04-10T00:20:46;100727.98;;;6.34;100.00
51526;BME280;37611;51.794;21.590;2023-04-10T00:24:48;100726.27;;;6.26;100.00
51526;BME280;37611;51.794;21.590;2023-04-10T00:28:50;100725.45;;;6.23;100.00
51526;BME280;37611;51.794;21.590;2023-04-10T00:32:51;100720.55;;;6.21;100.00
51526;BME280;37611;51.794;21.590;2023-04-10T00:36:53;100720.96;;;6.18;100.00
51526;BME280;37611;51.794;21.590;2023-04-10T00:40:55;100717.17;;;6.12;100.00
51526;BME280;37611;51.794;21.590;2023-04-10T00:44:57;100721.38;;;6.06;100.00
51526;BME280;37611;51.794;21.590;2023-04-10T00:48:59;100728.89;;;6.03;100.00
51526;BME280;37611;51.794;21.590;2023-04-10T00:53:01;100730.48;;;5.96;100.00
51526;BME280;37611;51.794;21.590;2023-04-10T00:57:03;100730.42;;;5.91;100.00
51526;BME280;37611;51.794;21.590;2023-04-10T01:01:05;100730.12;;;5.93;100.00
51526;BME280;37611;51.794;21.590;2023-04-10T01:05:10;100727.33;;;5.96;100.00
51526;BME280;37611;51.794;21.590;2023-04-10T01:21:35;100717.64;;;6.05;100.00
51526;BME280;37611;51.794;21.590;2023-04-10T01:25:58;100714.42;;;6.04;100.00
51526;BME280;37611;51.794;21.590;2023-04-10T01:30:02;100712.52;;;6.01;100.00
51526;BME280;37611;51.794;21.590;2023-04-10T01:34:14;100712.42;;;5.98;100.00
51526;BME280;37611;51.794;21.590;2023-04-10T01:38:18;100710.24;;;5.94;100.00
51526;BME280;37611;51.794;21.590;2023-04-10T01:42:22;100711.84;;;5.90;100.00
51526;BME280;37611;51.794;21.590;2023-04-10T01:46:25;100710.77;;;5.83;100.00
51526;BME280;37611;51.794;21.590;2023-04-10T01:50:28;100711.42;;;5.81;100.00
51526;BME280;37611;51.794;21.590;2023-04-10T01:54:31;100710.02;;;5.81;100.00
51526;BME280;37611;51.794;21.590;2023-04-10T01:58:34;100713.63;;;5.79;100.00
51526;BME280;37611;51.794;21.590;2023-04-10T02:02:36;100714.20;;;5.79;100.00
51526;BME280;37611;51.794;21.590;2023-04-10T02:06:50;100712.63;;;5.76;100.00
51526;BME280;37611;51.794;21.590;2023-04-10T02:11:02;100706.02;;;5.71;100.00
51526;BME280;37611;51.794;21.590;2023-04-10T02:15:09;100706.81;;;5.64;100.00
51526;BME280;37611;51.794;21.590;2023-04-10T02:19:12;100704.11;;;5.58;100.00
51526;BME280;37611;51.794;21.590;2023-04-10T02:23:16;100705.95;;;5.52;100.00
51526;BME280;37611;51.794;21.590;2023-04-10T02:27:33;100702.98;;;5.49;100.00
51526;BME280;37611;51.794;21.590;2023-04-10T02:31:36;100706.14;;;5.49;100.00
51526;BME280;37611;51.794;21.590;2023-04-10T02:35:38;100703.69;;;5.52;100.00
51526;BME280;37611;51.794;21.590;2023-04-10T02:39:40;100706.82;;;5.52;100.00
51526;BME280;37611;51.794;21.590;2023-04-10T02:43:42;100706.36;;;5.45;100.00
51526;BME280;37611;51.794;21.590;2023-04-10T02:47:43;100703.35;;;5.38;100.00
51526;BME280;37611;51.794;21.590;2023-04-10T02:51:45;100703.09;;;5.37;100.00
51526;BME280;37611;51.794;21.590;2023-04-10T02:55:47;100701.14;;;5.35;100.00
51526;BME280;37611;51.794;21.590;2023-04-10T02:59:49;100705.25;;;5.33;100.00
51526;BME280;37611;51.794;21.590;2023-04-10T03:03:51;100704.89;;;5.33;100.00
51526;BME280;37611;51.794;21.590;2023-04-10T03:07:53;100706.97;;;5.33;100.00
51526;BME280;37611;51.794;21.590;2023-04-10T03:11:55;100716.23;;;5.30;100.00
51526;BME280;37611;51.794;21.590;2023-04-10T03:15:57;100719.73;;;5.22;100.00
51526;BME280;37611;51.794;21.590;2023-04-10T03:19:58;100722.62;;;5.17;100.00
51526;BME280;37611;51.794;21.590;2023-04-10T03:24:00;100720.77;;;5.13;100.00
51526;BME280;37611;51.794;21.590;2023-04-10T03:28:03;100712.20;;;5.06;100.00
51526;BME280;37611;51.794;21.590;2023-04-10T03:32:04;100706.65;;;5.01;100.00
51526;BME280;37611;51.794;21.590;2023-04-10T03:36:07;100700.48;;;4.98;100.00
51526;BME280;37611;51.794;21.590;2023-04-10T03:40:09;100698.70;;;4.96;100.00
51526;BME280;37611;51.794;21.590;2023-04-10T03:44:11;100705.81;;;4.98;100.00
51526;BME280;37611;51.794;21.590;2023-04-10T03:48:13;100706.65;;;5.01;100.00
51526;BME280;37611;51.794;21.590;2023-04-10T03:52:15;100716.00;;;5.07;100.00
51526;BME280;37611;51.794;21.590;2023-04-10T03:56:17;100721.11;;;5.11;100.00
51526;BME280;37611;51.794;21.590;2023-04-10T04:00:19;100724.80;;;5.15;100.00
51526;BME280;37611;51.794;21.590;2023-04-10T04:04:21;100726.29;;;5.20;100.00
51526;BME280;37611;51.794;21.590;2023-04-10T04:08:22;100729.48;;;5.24;100.00
51526;BME280;37611;51.794;21.590;2023-04-10T04:12:24;100727.54;;;5.24;100.00
51526;BME280;37611;51.794;21.590;2023-04-10T04:16:26;100723.70;;;5.22;100.00
51526;BME280;37611;51.794;21.590;2023-04-10T04:20:27;100726.41;;;5.20;100.00
51526;BME280;37611;51.794;21.590;2023-04-10T04:24:29;100730.33;;;5.19;100.00
51526;BME280;37611;51.794;21.590;2023-04-10T04:28:31;100735.77;;;5.26;100.00
51526;BME280;37611;51.794;21.590;2023-04-10T04:32:32;100735.86;;;5.27;100.00
51526;BME280;37611;51.794;21.590;2023-04-10T04:36:34;100733.73;;;5.22;100.00
51526;BME280;37611;51.794;21.590;2023-04-10T04:40:36;100742.53;;;5.23;100.00
51526;BME280;37611;51.794;21.590;2023-04-10T04:44:38;100750.73;;;5.31;100.00
51526;BME280;37611;51.794;21.590;2023-04-10T04:48:40;100754.46;;;5.40;100.00
51526;BME280;37611;51.794;21.590;2023-04-10T04:52:43;100763.77;;;5.60;100.00
51526;BME280;37611;51.794;21.590;2023-04-10T04:56:44;100761.04;;;6.01;100.00
51526;BME280;37611;51.794;21.590;2023-04-10T05:00:46;100762.86;;;6.48;100.00
51526;BME280;37611;51.794;21.590;2023-04-10T05:04:48;100763.73;;;6.96;100.00
51526;BME280;37611;51.794;21.590;2023-04-10T05:08:49;100767.96;;;7.37;100.00
51526;BME280;37611;51.794;21.590;2023-04-10T05:12:53;100776.05;;;7.83;100.00
51526;BME280;37611;51.794;21.590;2023-04-10T05:16:54;100771.99;;;8.32;100.00
51526;BME280;37611;51.794;21.590;2023-04-10T05:20:56;100769.67;;;8.75;100.00
51526;BME280;37611;51.794;21.590;2023-04-10T05:24:58;100771.19;;;9.11;100.00
51526;BME280;37611;51.794;21.590;2023-04-10T05:29:00;100775.89;;;9.55;100.00
51526;BME280;37611;51.794;21.590;2023-04-10T05:33:01;100781.78;;;9.96;100.00
51526;BME280;37611;51.794;21.590;2023-04-10T05:37:03;100787.86;;;10.28;100.00
51526;BME280;37611;51.794;21.590;2023-04-10T05:41:05;100790.61;;;10.67;100.00
51526;BME280;37611;51.794;21.590;2023-04-10T05:45:07;100786.10;;;11.15;100.00
51526;BME280;37611;51.794;21.590;2023-04-10T05:49:09;100788.52;;;11.33;100.00
51526;BME280;37611;51.794;21.590;2023-04-10T05:53:12;100784.07;;;11.57;100.00
51526;BME280;37611;51.794;21.590;2023-04-10T05:57:14;100790.63;;;11.97;100.00
51526;BME280;37611;51.794;21.590;2023-04-10T06:01:16;100791.58;;;12.11;100.00
51526;BME280;37611;51.794;21.590;2023-04-10T06:05:18;100793.23;;;12.37;100.00
51526;BME280;37611;51.794;21.590;2023-04-10T06:09:20;100791.29;;;12.66;100.00
51526;BME280;37611;51.794;21.590;2023-04-10T06:13:22;100793.11;;;13.02;100.00
51526;BME280;37611;51.794;21.590;2023-04-10T06:17:24;100797.33;;;13.35;99.86
51526;BME280;37611;51.794;21.590;2023-04-10T06:21:26;100800.96;;;13.55;100.00
51526;BME280;37611;51.794;21.590;2023-04-10T06:25:28;100803.73;;;13.98;99.57
51526;BME280;37611;51.794;21.590;2023-04-10T06:29:30;100806.01;;;14.31;97.40
51526;BME280;37611;51.794;21.590;2023-04-10T06:33:31;100809.81;;;14.47;95.95
51526;BME280;37611;51.794;21.590;2023-04-10T06:37:36;100807.70;;;14.47;94.86
51526;BME280;37611;51.794;21.590;2023-04-10T06:41:38;100809.34;;;14.78;94.94
51526;BME280;37611;51.794;21.590;2023-04-10T06:45:39;100803.55;;;15.05;93.47
51526;BME280;37611;51.794;21.590;2023-04-10T06:49:41;100809.45;;;15.00;91.79
51526;BME280;37611;51.794;21.590;2023-04-10T06:53:43;100807.83;;;15.07;90.67
51526;BME280;37611;51.794;21.590;2023-04-10T06:57:44;100806.35;;;15.39;88.51
51526;BME280;37611;51.794;21.590;2023-04-10T07:01:46;100809.17;;;15.53;88.57
51526;BME280;37611;51.794;21.590;2023-04-10T07:05:48;100807.89;;;15.75;87.43
51526;BME280;37611;51.794;21.590;2023-04-10T07:09:50;100812.27;;;15.75;86.81
51526;BME280;37611;51.794;21.590;2023-04-10T07:13:51;100812.60;;;15.69;86.26
51526;BME280;37611;51.794;21.590;2023-04-10T07:17:58;100809.73;;;15.36;84.87
51526;BME280;37611;51.794;21.590;2023-04-10T07:22:00;100809.55;;;15.29;85.41
51526;BME280;37611;51.794;21.590;2023-04-10T07:26:01;100807.55;;;15.50;85.37
51526;BME280;37611;51.794;21.590;2023-04-10T07:30:03;100810.27;;;15.59;84.50
51526;BME280;37611;51.794;21.590;2023-04-10T07:34:05;100811.99;;;15.68;83.99
51526;BME280;37611;51.794;21.590;2023-04-10T07:38:07;100805.94;;;15.78;83.52
51526;BME280;37611;51.794;21.590;2023-04-10T07:42:10;100804.41;;;15.78;80.86
51526;BME280;37611;51.794;21.590;2023-04-10T07:46:12;100803.19;;;15.87;82.87
51526;BME280;37611;51.794;21.590;2023-04-10T07:50:13;100804.04;;;16.18;82.17
51526;BME280;37611;51.794;21.590;2023-04-10T07:54:15;100802.63;;;16.41;79.56
51526;BME280;37611;51.794;21.590;2023-04-10T07:58:17;100799.11;;;16.40;79.80
51526;BME280;37611;51.794;21.590;2023-04-10T08:02:18;100799.77;;;16.50;77.45
51526;BME280;37611;51.794;21.590;2023-04-10T08:06:21;100801.23;;;16.53;76.88
51526;BME280;37611;51.794;21.590;2023-04-10T08:10:23;100803.00;;;16.86;76.87
51526;BME280;37611;51.794;21.590;2023-04-10T08:14:24;100800.39;;;17.15;75.32
51526;BME280;37611;51.794;21.590;2023-04-10T08:18:26;100796.77;;;17.21;73.18
51526;BME280;37611;51.794;21.590;2023-04-10T08:22:28;100796.71;;;17.27;72.31
51526;BME280;37611;51.794;21.590;2023-04-10T08:26:29;100790.91;;;17.30;70.72
51526;BME280;37611;51.794;21.590;2023-04-10T08:30:31;100789.02;;;17.14;70.15
51526;BME280;37611;51.794;21.590;2023-04-10T08:34:33;100787.16;;;17.20;69.09
51526;BME280;37611;51.794;21.590;2023-04-10T08:38:35;100787.30;;;17.14;68.84
51526;BME280;37611;51.794;21.590;2023-04-10T08:42:37;100786.57;;;17.19;68.00
51526;BME280;37611;51.794;21.590;2023-04-10T08:46:42;100782.70;;;17.28;68.79
51526;BME280;37611;51.794;21.590;2023-04-10T08:50:44;100776.40;;;17.31;68.20
51526;BME280;37611;51.794;21.590;2023-04-10T08:54:48;100777.29;;;17.53;68.53
51526;BME280;37611;51.794;21.590;2023-04-10T08:58:51;100777.02;;;18.01;68.06
51526;BME280;37611;51.794;21.590;2023-04-10T09:02:54;100777.38;;;18.30;67.04
51526;BME280;37611;51.794;21.590;2023-04-10T09:06:59;100772.38;;;18.55;65.56
51526;BME280;37611;51.794;21.590;2023-04-10T09:11:00;100771.32;;;18.68;63.10
51526;BME280;37611;51.794;21.590;2023-04-10T09:15:02;100771.42;;;18.61;62.83
51526;BME280;37611;51.794;21.590;2023-04-10T09:19:04;100766.01;;;18.65;61.97
51526;BME280;37611;51.794;21.590;2023-04-10T09:23:21;100764.42;;;18.44;61.64
51526;BME280;37611;51.794;21.590;2023-04-10T09:27:34;100756.33;;;18.39;62.31
51526;BME280;37611;51.794;21.590;2023-04-10T09:31:37;100756.88;;;18.53;61.03
51526;BME280;37611;51.794;21.590;2023-04-10T09:35:39;100753.52;;;18.62;60.38
51526;BME280;37611;51.794;21.590;2023-04-10T09:39:41;100746.38;;;18.76;60.51
51526;BME280;37611;51.794;21.590;2023-04-10T09:43:44;100741.48;;;18.68;59.27
51526;BME280;37611;51.794;21.590;2023-04-10T09:48:03;100740.44;;;18.47;60.04
51526;BME280;37611;51.794;21.590;2023-04-10T09:52:26;100738.23;;;18.44;59.03
51526;BME280;37611;51.794;21.590;2023-04-10T09:56:29;100731.02;;;18.47;59.79
51526;BME280;37611;51.794;21.590;2023-04-10T10:00:39;100723.23;;;18.69;59.21
51526;BME280;37611;51.794;21.590;2023-04-10T10:04:43;100719.80;;;18.73;58.27
51526;BME280;37611;51.794;21.590;2023-04-10T10:08:47;100717.55;;;18.40;57.84
51526;BME280;37611;51.794;21.590;2023-04-10T10:12:52;100720.32;;;18.20;58.74
51526;BME280;37611;51.794;21.590;2023-04-10T10:16:58;100715.19;;;18.01;57.78
51526;BME280;37611;51.794;21.590;2023-04-10T10:21:02;100713.44;;;17.84;57.37
51526;BME280;37611;51.794;21.590;2023-04-10T10:25:06;100710.84;;;17.61;57.28
51526;BME280;37611;51.794;21.590;2023-04-10T10:29:09;100708.96;;;17.45;58.19
51526;BME280;37611;51.794;21.590;2023-04-10T10:33:12;100704.20;;;17.34;57.87
51526;BME280;37611;51.794;21.590;2023-04-10T10:37:16;100697.35;;;17.29;58.50
51526;BME280;37611;51.794;21.590;2023-04-10T10:41:29;100697.48;;;17.37;58.60
51526;BME280;37611;51.794;21.590;2023-04-10T10:45:40;100687.15;;;17.46;58.75
51526;BME280;37611;51.794;21.590;2023-04-10T10:49:57;100678.46;;;17.73;58.01
51526;BME280;37611;51.794;21.590;2023-04-10T10:53:59;100673.98;;;17.85;57.92
51526;BME280;37611;51.794;21.590;2023-04-10T10:58:05;100671.70;;;18.15;56.99
51526;BME280;37611;51.794;21.590;2023-04-10T11:02:16;100670.43;;;18.09;56.80
51526;BME280;37611;51.794;21.590;2023-04-10T11:06:21;100668.13;;;17.89;56.93
51526;BME280;37611;51.794;21.590;2023-04-10T11:11:02;100662.75;;;17.88;57.43
51526;BME280;37611;51.794;21.590;2023-04-10T11:15:06;100657.50;;;17.66;56.78
51526;BME280;37611;51.794;21.590;2023-04-10T11:19:10;100653.73;;;17.68;57.53
51526;BME280;37611;51.794;21.590;2023-04-10T11:23:15;100647.29;;;17.79;57.82
51526;BME280;37611;51.794;21.590;2023-04-10T11:27:36;100642.72;;;17.92;57.59
51526;BME280;37611;51.794;21.590;2023-04-10T11:31:39;100636.58;;;18.03;57.39
51526;BME280;37611;51.794;21.590;2023-04-10T11:35:44;100629.44;;;18.25;57.33
51526;BME280;37611;51.794;21.590;2023-04-10T11:39:46;100626.85;;;18.12;57.51
51526;BME280;37611;51.794;21.590;2023-04-10T11:43:51;100622.98;;;17.86;57.09
51526;BME280;37611;51.794;21.590;2023-04-10T11:47:53;100610.96;;;17.80;57.68
51526;BME280;37611;51.794;21.590;2023-04-10T11:51:55;100602.77;;;17.91;57.57
51526;BME280;37611;51.794;21.590;2023-04-10T11:55:57;100599.81;;;17.84;57.77
51526;BME280;37611;51.794;21.590;2023-04-10T11:59:58;100601.75;;;17.65;57.63
51526;BME280;37611;51.794;21.590;2023-04-10T12:04:00;100599.48;;;17.47;58.62
51526;BME280;37611;51.794;21.590;2023-04-10T12:08:02;100594.91;;;17.42;58.40
51526;BME280;37611;51.794;21.590;2023-04-10T12:12:05;100583.58;;;17.41;58.15
51526;BME280;37611;51.794;21.590;2023-04-10T12:16:09;100570.91;;;17.55;58.71
51526;BME280;37611;51.794;21.590;2023-04-10T12:20:13;100561.41;;;17.77;56.99
51526;BME280;37611;51.794;21.590;2023-04-10T12:24:39;100552.66;;;17.86;55.94
51526;BME280;37611;51.794;21.590;2023-04-10T12:28:49;100548.02;;;17.91;56.25
51526;BME280;37611;51.794;21.590;2023-04-10T12:32:51;100544.77;;;17.86;56.50
51526;BME280;37611;51.794;21.590;2023-04-10T12:36:57;100540.04;;;17.94;57.37
51526;BME280;37611;51.794;21.590;2023-04-10T12:40:59;100533.84;;;18.18;57.24
51526;BME280;37611;51.794;21.590;2023-04-10T12:45:01;100530.02;;;18.45;56.01
51526;BME280;37611;51.794;21.590;2023-04-10T12:49:16;100528.93;;;18.39;53.52
51526;BME280;37611;51.794;21.590;2023-04-10T12:53:21;100528.71;;;17.95;53.41
51526;BME280;37611;51.794;21.590;2023-04-10T12:57:26;100528.27;;;17.58;54.18
51526;BME280;37611;51.794;21.590;2023-04-10T13:01:30;100528.52;;;17.33;55.15
51526;BME280;37611;51.794;21.590;2023-04-10T13:05:32;100527.39;;;17.28;55.53
51526;BME280;37611;51.794;21.590;2023-04-10T13:09:34;100517.23;;;17.35;56.47
51526;BME280;37611;51.794;21.590;2023-04-10T13:13:35;100510.67;;;17.49;56.38
51526;BME280;37611;51.794;21.590;2023-04-10T13:17:37;100500.60;;;17.67;56.22
51526;BME280;37611;51.794;21.590;2023-04-10T13:21:39;100496.39;;;17.86;56.28
51526;BME280;37611;51.794;21.590;2023-04-10T13:25:40;100496.65;;;18.07;54.31
51526;BME280;37611;51.794;21.590;2023-04-10T13:29:43;100494.06;;;17.93;52.88
51526;BME280;37611;51.794;21.590;2023-04-10T13:33:46;100493.02;;;17.80;53.15
51526;BME280;37611;51.794;21.590;2023-04-10T13:37:48;100492.97;;;17.58;53.12
51526;BME280;37611;51.794;21.590;2023-04-10T13:41:53;100491.90;;;17.51;53.83
51526;BME280;37611;51.794;21.590;2023-04-10T13:45:55;100489.17;;;17.48;54.37
51526;BME280;37611;51.794;21.590;2023-04-10T13:49:56;100487.10;;;17.52;53.86
51526;BME280;37611;51.794;21.590;2023-04-10T13:53:58;100483.45;;;17.45;53.60
51526;BME280;37611;51.794;21.590;2023-04-10T13:58:00;100481.56;;;17.35;54.46
51526;BME280;37611;51.794;21.590;2023-04-10T14:02:01;100481.25;;;17.35;54.72
51526;BME280;37611;51.794;21.590;2023-04-10T14:06:03;100477.89;;;17.32;54.63
51526;BME280;37611;51.794;21.590;2023-04-10T14:10:06;100478.59;;;17.29;54.65
51526;BME280;37611;51.794;21.590;2023-04-10T14:14:08;100490.12;;;17.36;55.09
51526;BME280;37611;51.794;21.590;2023-04-10T14:18:10;100498.73;;;17.30;57.62
51526;BME280;37611;51.794;21.590;2023-04-10T14:22:12;100501.18;;;16.95;59.01
51526;BME280;37611;51.794;21.590;2023-04-10T14:26:14;100493.45;;;16.54;60.08
51526;BME280;37611;51.794;21.590;2023-04-10T14:30:15;100490.98;;;16.18;61.08
51526;BME280;37611;51.794;21.590;2023-04-10T14:34:17;100485.48;;;15.96;62.07
51526;BME280;37611;51.794;21.590;2023-04-10T14:38:19;100488.22;;;15.75;63.61
51526;BME280;37611;51.794;21.590;2023-04-10T14:42:21;100498.52;;;15.48;66.37
51526;BME280;37611;51.794;21.590;2023-04-10T14:46:24;100499.41;;;15.27;71.46
51526;BME280;37611;51.794;21.590;2023-04-10T14:50:26;100485.82;;;15.13;72.21
51526;BME280;37611;51.794;21.590;2023-04-10T14:54:27;100488.34;;;14.98;72.81
51526;BME280;37611;51.794;21.590;2023-04-10T14:58:29;100482.91;;;14.86;73.31
51526;BME280;37611;51.794;21.590;2023-04-10T15:02:31;100478.79;;;14.84;78.00
51526;BME280;37611;51.794;21.590;2023-04-10T15:06:33;100481.30;;;14.82;84.97
51526;BME280;37611;51.794;21.590;2023-04-10T15:10:35;100480.98;;;14.72;86.46
51526;BME280;37611;51.794;21.590;2023-04-10T15:14:36;100481.52;;;14.70;86.05
51526;BME280;37611;51.794;21.590;2023-04-10T15:18:38;100485.08;;;14.65;92.15
51526;BME280;37611;51.794;21.590;2023-04-10T15:22:40;100480.13;;;14.50;88.41
51526;BME280;37611;51.794;21.590;2023-04-10T15:26:45;100475.90;;;14.17;90.63
51526;BME280;37611;51.794;21.590;2023-04-10T15:30:47;100468.92;;;13.92;89.32
51526;BME280;37611;51.794;21.590;2023-04-10T15:34:50;100470.15;;;13.77;88.96
51526;BME280;37611;51.794;21.590;2023-04-10T15:38:52;100469.62;;;13.65;92.16
51526;BME280;37611;51.794;21.590;2023-04-10T15:42:53;100459.77;;;13.50;90.25
51526;BME280;37611;51.794;21.590;2023-04-10T15:46:55;100459.45;;;13.43;89.96
51526;BME280;37611;51.794;21.590;2023-04-10T15:50:57;100459.99;;;13.38;90.65
51526;BME280;37611;51.794;21.590;2023-04-10T15:55:00;100460.70;;;13.34;91.65
51526;BME280;37611;51.794;21.590;2023-04-10T15:59:02;100457.20;;;13.33;95.16
51526;BME280;37611;51.794;21.590;2023-04-10T16:03:04;100462.67;;;13.32;95.99
51526;BME280;37611;51.794;21.590;2023-04-10T16:07:06;100461.48;;;13.32;96.18
51526;BME280;37611;51.794;21.590;2023-04-10T16:11:07;100458.40;;;13.31;97.59
51526;BME280;37611;51.794;21.590;2023-04-10T16:15:09;100457.77;;;13.23;99.58
51526;BME280;37611;51.794;21.590;2023-04-10T16:19:11;100455.23;;;13.07;99.40
51526;BME280;37611;51.794;21.590;2023-04-10T16:23:13;100459.20;;;12.96;99.26
51526;BME280;37611;51.794;21.590;2023-04-10T16:27:14;100453.13;;;12.83;99.09
51526;BME280;37611;51.794;21.590;2023-04-10T16:31:16;100443.20;;;12.73;99.93
51526;BME280;37611;51.794;21.590;2023-04-10T16:35:18;100437.89;;;12.65;99.77
51526;BME280;37611;51.794;21.590;2023-04-10T16:39:20;100435.06;;;12.63;98.06
51526;BME280;37611;51.794;21.590;2023-04-10T16:43:21;100430.02;;;12.61;99.22
51526;BME280;37611;51.794;21.590;2023-04-10T16:47:23;100430.89;;;12.59;98.32
51526;BME280;37611;51.794;21.590;2023-04-10T16:51:25;100432.36;;;12.57;99.01
51526;BME280;37611;51.794;21.590;2023-04-10T16:55:27;100428.58;;;12.58;99.36
51526;BME280;37611;51.794;21.590;2023-04-10T16:59:31;100428.17;;;12.57;99.56
51526;BME280;37611;51.794;21.590;2023-04-10T17:03:32;100425.70;;;12.53;99.99
51526;BME280;37611;51.794;21.590;2023-04-10T17:07:34;100430.79;;;12.45;100.00
51526;BME280;37611;51.794;21.590;2023-04-10T17:11:36;100432.29;;;12.38;99.92
51526;BME280;37611;51.794;21.590;2023-04-10T17:15:38;100433.67;;;12.34;100.00
51526;BME280;37611;51.794;21.590;2023-04-10T17:19:40;100432.82;;;12.26;99.63
51526;BME280;37611;51.794;21.590;2023-04-10T17:23:41;100434.60;;;12.13;99.68
51526;BME280;37611;51.794;21.590;2023-04-10T17:27:43;100434.48;;;12.00;100.00
51526;BME280;37611;51.794;21.590;2023-04-10T17:31:45;100432.64;;;11.97;100.00
51526;BME280;37611;51.794;21.590;2023-04-10T17:35:49;100428.98;;;11.92;100.00
51526;BME280;37611;51.794;21.590;2023-04-10T17:39:51;100436.62;;;11.82;100.00
51526;BME280;37611;51.794;21.590;2023-04-10T17:43:54;100445.61;;;11.72;100.00
51526;BME280;37611;51.794;21.590;2023-04-10T17:47:56;100447.88;;;11.69;100.00
51526;BME280;37611;51.794;21.590;2023-04-10T17:51:57;100449.65;;;11.65;100.00
51526;BME280;37611;51.794;21.590;2023-04-10T17:55:59;100452.01;;;11.57;100.00
51526;BME280;37611;51.794;21.590;2023-04-10T18:00:06;100448.86;;;11.53;100.00
51526;BME280;37611;51.794;21.590;2023-04-10T18:04:08;100451.90;;;11.49;100.00
51526;BME280;37611;51.794;21.590;2023-04-10T18:08:09;100451.19;;;11.38;100.00
51526;BME280;37611;51.794;21.590;2023-04-10T18:12:11;100450.15;;;11.23;100.00
51526;BME280;37611;51.794;21.590;2023-04-10T18:16:13;100445.09;;;11.10;100.00
51526;BME280;37611;51.794;21.590;2023-04-10T18:20:14;100442.25;;;10.97;100.00
51526;BME280;37611;51.794;21.590;2023-04-10T18:24:18;100442.34;;;10.85;100.00
51526;BME280;37611;51.794;21.590;2023-04-10T18:28:21;100440.52;;;10.73;100.00
51526;BME280;37611;51.794;21.590;2023-04-10T18:32:23;100445.05;;;10.65;100.00
51526;BME280;37611;51.794;21.590;2023-04-10T18:36:25;100440.23;;;10.57;100.00
51526;BME280;37611;51.794;21.590;2023-04-10T18:40:27;100432.70;;;10.47;100.00
51526;BME280;37611;51.794;21.590;2023-04-10T18:44:29;100431.38;;;10.39;100.00
51526;BME280;37611;51.794;21.590;2023-04-10T18:48:33;100431.11;;;10.30;100.00
51526;BME280;37611;51.794;21.590;2023-04-10T18:52:35;100428.50;;;10.22;100.00
51526;BME280;37611;51.794;21.590;2023-04-10T18:56:36;100427.07;;;10.11;100.00
51526;BME280;37611;51.794;21.590;2023-04-10T19:00:40;100425.98;;;9.96;100.00
51526;BME280;37611;51.794;21.590;2023-04-10T19:04:41;100421.61;;;9.82;100.00
51526;BME280;37611;51.794;21.590;2023-04-10T19:08:43;100419.95;;;9.71;100.00
51526;BME280;37611;51.794;21.590;2023-04-10T19:12:45;100416.52;;;9.58;100.00
51526;BME280;37611;51.794;21.590;2023-04-10T19:16:47;100415.61;;;9.43;100.00
51526;BME280;37611;51.794;21.590;2023-04-10T19:20:49;100413.67;;;9.31;100.00
51526;BME280;37611;51.794;21.590;2023-04-10T19:24:51;100419.45;;;9.19;100.00
51526;BME280;37611;51.794;21.590;2023-04-10T19:28:52;100415.64;;;9.04;100.00
51526;BME280;37611;51.794;21.590;2023-04-10T19:32:55;100410.80;;;8.94;100.00
51526;BME280;37611;51.794;21.590;2023-04-10T19:36:57;100404.65;;;8.84;100.00
51526;BME280;37611;51.794;21.590;2023-04-10T19:40:59;100399.27;;;8.79;100.00
51526;BME280;37611;51.794;21.590;2023-04-10T19:45:01;100396.03;;;8.75;100.00
51526;BME280;37611;51.794;21.590;2023-04-10T19:49:02;100398.83;;;8.72;100.00
51526;BME280;37611;51.794;21.590;2023-04-10T19:53:04;100394.30;;;8.68;100.00
51526;BME280;37611;51.794;21.590;2023-04-10T19:57:06;100389.58;;;8.66;100.00
51526;BME280;37611;51.794;21.590;2023-04-10T20:01:08;100388.42;;;8.66;100.00
51526;BME280;37611;51.794;21.590;2023-04-10T20:05:11;100386.36;;;8.61;100.00
51526;BME280;37611;51.794;21.590;2023-04-10T20:09:14;100383.93;;;8.58;100.00
51526;BME280;37611;51.794;21.590;2023-04-10T20:13:16;100381.70;;;8.52;100.00
51526;BME280;37611;51.794;21.590;2023-04-10T20:17:17;100378.64;;;8.45;100.00
51526;BME280;37611;51.794;21.590;2023-04-10T20:21:20;100371.17;;;8.40;100.00
51526;BME280;37611;51.794;21.590;2023-04-10T20:25:21;100365.74;;;8.34;100.00
51526;BME280;37611;51.794;21.590;2023-04-10T20:29:23;100366.64;;;8.29;100.00
51526;BME280;37611;51.794;21.590;2023-04-10T20:33:25;100362.88;;;8.26;100.00
51526;BME280;37611;51.794;21.590;2023-04-10T20:37:27;100360.42;;;8.22;100.00
51526;BME280;37611;51.794;21.590;2023-04-10T20:41:32;100354.64;;;8.19;100.00
51526;BME280;37611;51.794;21.590;2023-04-10T20:45:34;100355.83;;;8.15;100.00
51526;BME280;37611;51.794;21.590;2023-04-10T20:49:36;100357.75;;;8.10;100.00
51526;BME280;37611;51.794;21.590;2023-04-10T20:53:38;100352.90;;;8.02;100.00
51526;BME280;37611;51.794;21.590;2023-04-10T20:57:40;100351.79;;;7.92;100.00
51526;BME280;37611;51.794;21.590;2023-04-10T21:01:42;100347.86;;;7.80;100.00